sensor_id;sensor_type;location;lat;lon;timestamp;temperature;humidity
11043;DHT22;5574;48.786;10.120;2024-01-11T00:00:48;-3.30;97.90
11043;DHT22;5574;48.786;10.120;2024-01-11T00:03:16;-3.30;98.20
11043;DHT22;5574;48.786;10.120;2024-01-11T00:05:43;-3.30;97.80
11043;DHT22;5574;48.786;10.120;2024-01-11T00:08:11;-3.30;97.80
11043;DHT22;5574;48.786;10.120;2024-01-11T00:10:37;-3.30;97.80
11043;DHT22;5574;48.786;10.120;2024-01-11T00:13:04;-3.30;97.80
11043;DHT22;5574;48.786;10.120;2024-01-11T00:15:31;-3.30;97.70
11043;DHT22;5574;48.786;10.120;2024-01-11T00:17:57;-3.30;97.40
11043;DHT22;5574;48.786;10.120;2024-01-11T00:20:25;-3.30;97.40
11043;DHT22;5574;48.786;10.120;2024-01-11T00:22:52;-3.40;97.20
11043;DHT22;5574;48.786;10.120;2024-01-11T00:25:19;-3.30;97.60
11043;DHT22;5574;48.786;10.120;2024-01-11T00:27:45;-3.40;97.60
11043;DHT22;5574;48.786;10.120;2024-01-11T00:30:12;-3.40;97.60
11043;DHT22;5574;48.786;10.120;2024-01-11T00:32:39;-3.40;97.40
11043;DHT22;5574;48.786;10.120;2024-01-11T00:35:06;-3.50;97.40
11043;DHT22;5574;48.786;10.120;2024-01-11T00:37:34;-3.50;97.40
11043;DHT22;5574;48.786;10.120;2024-01-11T00:40:01;-3.60;97.50
11043;DHT22;5574;48.786;10.120;2024-01-11T00:42:28;-3.60;97.60
11043;DHT22;5574;48.786;10.120;2024-01-11T00:44:54;-3.60;97.70
11043;DHT22;5574;48.786;10.120;2024-01-11T00:47:21;-3.60;98.00
11043;DHT22;5574;48.786;10.120;2024-01-11T00:49:47;-3.60;98.00
11043;DHT22;5574;48.786;10.120;2024-01-11T00:52:14;-3.60;97.90
11043;DHT22;5574;48.786;10.120;2024-01-11T00:54:42;-3.60;97.80
11043;DHT22;5574;48.786;10.120;2024-01-11T00:57:09;-3.60;97.70
11043;DHT22;5574;48.786;10.120;2024-01-11T00:59:35;-3.60;97.70
11043;DHT22;5574;48.786;10.120;2024-01-11T01:02:02;-3.60;97.70
11043;DHT22;5574;48.786;10.120;2024-01-11T01:04:29;-3.60;97.60
11043;DHT22;5574;48.786;10.120;2024-01-11T01:06:57;-3.70;97.60
11043;DHT22;5574;48.786;10.120;2024-01-11T01:09:23;-3.70;97.50
11043;DHT22;5574;48.786;10.120;2024-01-11T01:11:51;-3.70;97.40
11043;DHT22;5574;48.786;10.120;2024-01-11T01:14:18;-3.70;97.50
11043;DHT22;5574;48.786;10.120;2024-01-11T01:16:45;-3.70;97.90
11043;DHT22;5574;48.786;10.120;2024-01-11T01:19:11;-3.70;97.60
11043;DHT22;5574;48.786;10.120;2024-01-11T01:21:38;-3.70;97.50
11043;DHT22;5574;48.786;10.120;2024-01-11T01:24:05;-3.80;97.50
11043;DHT22;5574;48.786;10.120;2024-01-11T01:26:31;-3.80;97.50
11043;DHT22;5574;48.786;10.120;2024-01-11T01:29:00;-3.70;97.60
11043;DHT22;5574;48.786;10.120;2024-01-11T01:31:27;-3.80;97.30
11043;DHT22;5574;48.786;10.120;2024-01-11T01:33:54;-3.70;97.60
11043;DHT22;5574;48.786;10.120;2024-01-11T01:36:20;-3.80;97.40
11043;DHT22;5574;48.786;10.120;2024-01-11T01:38:47;-3.80;97.40
11043;DHT22;5574;48.786;10.120;2024-01-11T01:41:13;-3.70;97.50
11043;DHT22;5574;48.786;10.120;2024-01-11T01:43:40;-3.80;97.30
11043;DHT22;5574;48.786;10.120;2024-01-11T01:46:08;-3.80;97.30
11043;DHT22;5574;48.786;10.120;2024-01-11T01:48:35;-3.90;97.40
11043;DHT22;5574;48.786;10.120;2024-01-11T01:51:03;-3.90;97.50
11043;DHT22;5574;48.786;10.120;2024-01-11T01:53:30;-4.00;97.50
11043;DHT22;5574;48.786;10.120;2024-01-11T01:55:57;-4.00;97.70
11043;DHT22;5574;48.786;10.120;2024-01-11T01:58:24;-4.00;97.90
11043;DHT22;5574;48.786;10.120;2024-01-11T02:00:51;-4.00;98.00
11043;DHT22;5574;48.786;10.120;2024-01-11T02:03:20;-3.90;97.90
11043;DHT22;5574;48.786;10.120;2024-01-11T02:05:47;-3.90;98.00
11043;DHT22;5574;48.786;10.120;2024-01-11T02:08:16;-4.00;98.00
11043;DHT22;5574;48.786;10.120;2024-01-11T02:10:43;-3.90;98.20
11043;DHT22;5574;48.786;10.120;2024-01-11T02:13:11;-4.00;98.10
11043;DHT22;5574;48.786;10.120;2024-01-11T02:15:38;-4.00;97.70
11043;DHT22;5574;48.786;10.120;2024-01-11T02:18:05;-4.00;97.70
11043;DHT22;5574;48.786;10.120;2024-01-11T02:20:33;-4.00;97.80
11043;DHT22;5574;48.786;10.120;2024-01-11T02:23:04;-4.00;98.00
11043;DHT22;5574;48.786;10.120;2024-01-11T02:25:32;-4.00;98.30
11043;DHT22;5574;48.786;10.120;2024-01-11T02:27:59;-4.00;98.20
11043;DHT22;5574;48.786;10.120;2024-01-11T02:30:26;-3.90;98.20
11043;DHT22;5574;48.786;10.120;2024-01-11T02:32:54;-4.00;98.20
11043;DHT22;5574;48.786;10.120;2024-01-11T02:35:21;-4.00;98.20
11043;DHT22;5574;48.786;10.120;2024-01-11T02:37:48;-3.90;98.20
11043;DHT22;5574;48.786;10.120;2024-01-11T02:40:15;-3.90;98.30
11043;DHT22;5574;48.786;10.120;2024-01-11T02:42:43;-3.90;98.20
11043;DHT22;5574;48.786;10.120;2024-01-11T02:45:10;-3.90;98.20
11043;DHT22;5574;48.786;10.120;2024-01-11T02:47:37;-3.90;98.10
11043;DHT22;5574;48.786;10.120;2024-01-11T02:50:04;-3.90;98.00
11043;DHT22;5574;48.786;10.120;2024-01-11T02:52:32;-3.90;98.10
11043;DHT22;5574;48.786;10.120;2024-01-11T02:54:59;-3.90;97.50
11043;DHT22;5574;48.786;10.120;2024-01-11T02:57:25;-3.90;97.50
11043;DHT22;5574;48.786;10.120;2024-01-11T02:59:53;-3.90;97.60
11043;DHT22;5574;48.786;10.120;2024-01-11T03:02:20;-3.90;97.60
11043;DHT22;5574;48.786;10.120;2024-01-11T03:04:47;-3.90;97.50
11043;DHT22;5574;48.786;10.120;2024-01-11T03:07:14;-3.90;97.50
11043;DHT22;5574;48.786;10.120;2024-01-11T03:09:41;-3.90;97.50
11043;DHT22;5574;48.786;10.120;2024-01-11T03:12:07;-3.90;97.50
11043;DHT22;5574;48.786;10.120;2024-01-11T03:14:34;-3.90;97.50
11043;DHT22;5574;48.786;10.120;2024-01-11T03:17:02;-4.00;97.50
11043;DHT22;5574;48.786;10.120;2024-01-11T03:19:29;-4.00;97.50
11043;DHT22;5574;48.786;10.120;2024-01-11T03:21:55;-4.00;97.50
11043;DHT22;5574;48.786;10.120;2024-01-11T03:24:23;-4.00;97.80
11043;DHT22;5574;48.786;10.120;2024-01-11T03:26:49;-4.00;97.60
11043;DHT22;5574;48.786;10.120;2024-01-11T03:29:16;-4.00;97.80
11043;DHT22;5574;48.786;10.120;2024-01-11T03:31:42;-4.00;97.80
11043;DHT22;5574;48.786;10.120;2024-01-11T03:34:11;-4.00;97.80
11043;DHT22;5574;48.786;10.120;2024-01-11T03:36:38;-3.90;97.70
11043;DHT22;5574;48.786;10.120;2024-01-11T03:39:05;-3.90;97.40
11043;DHT22;5574;48.786;10.120;2024-01-11T03:41:32;-4.00;97.30
11043;DHT22;5574;48.786;10.120;2024-01-11T03:43:59;-4.00;97.40
11043;DHT22;5574;48.786;10.120;2024-01-11T03:46:26;-4.00;97.50
11043;DHT22;5574;48.786;10.120;2024-01-11T03:48:52;-4.10;97.50
11043;DHT22;5574;48.786;10.120;2024-01-11T03:51:22;-4.00;97.90
11043;DHT22;5574;48.786;10.120;2024-01-11T03:53:49;-4.10;97.40
11043;DHT22;5574;48.786;10.120;2024-01-11T03:56:15;-4.10;97.40
11043;DHT22;5574;48.786;10.120;2024-01-11T03:58:42;-4.20;97.40
11043;DHT22;5574;48.786;10.120;2024-01-11T04:01:10;-4.20;97.40
11043;DHT22;5574;48.786;10.120;2024-01-11T04:03:37;-4.20;97.80
11043;DHT22;5574;48.786;10.120;2024-01-11T04:06:04;-4.20;97.90
11043;DHT22;5574;48.786;10.120;2024-01-11T04:08:32;-4.20;97.90
11043;DHT22;5574;48.786;10.120;2024-01-11T04:11:01;-4.20;97.80
11043;DHT22;5574;48.786;10.120;2024-01-11T04:13:28;-4.10;97.70
11043;DHT22;5574;48.786;10.120;2024-01-11T04:15:55;-4.10;97.50
11043;DHT22;5574;48.786;10.120;2024-01-11T04:18:21;-4.10;97.50
11043;DHT22;5574;48.786;10.120;2024-01-11T04:20:49;-4.10;97.40
11043;DHT22;5574;48.786;10.120;2024-01-11T04:23:16;-4.30;97.40
11043;DHT22;5574;48.786;10.120;2024-01-11T04:25:44;-4.30;97.60
11043;DHT22;5574;48.786;10.120;2024-01-11T04:28:11;-4.30;97.60
11043;DHT22;5574;48.786;10.120;2024-01-11T04:30:37;-4.30;97.80
11043;DHT22;5574;48.786;10.120;2024-01-11T04:33:04;-4.30;97.90
11043;DHT22;5574;48.786;10.120;2024-01-11T04:35:31;-4.30;97.90
11043;DHT22;5574;48.786;10.120;2024-01-11T04:37:57;-4.30;97.90
11043;DHT22;5574;48.786;10.120;2024-01-11T04:40:24;-4.20;97.90
11043;DHT22;5574;48.786;10.120;2024-01-11T04:42:52;-4.20;97.80
11043;DHT22;5574;48.786;10.120;2024-01-11T04:45:18;-4.30;97.60
11043;DHT22;5574;48.786;10.120;2024-01-11T04:47:45;-4.30;97.60
11043;DHT22;5574;48.786;10.120;2024-01-11T04:50:12;-4.20;97.90
11043;DHT22;5574;48.786;10.120;2024-01-11T04:52:38;-4.20;97.70
11043;DHT22;5574;48.786;10.120;2024-01-11T04:55:05;-4.20;97.60
11043;DHT22;5574;48.786;10.120;2024-01-11T04:57:32;-4.20;97.60
11043;DHT22;5574;48.786;10.120;2024-01-11T05:00:00;-4.20;97.60
11043;DHT22;5574;48.786;10.120;2024-01-11T05:02:26;-4.20;97.80
11043;DHT22;5574;48.786;10.120;2024-01-11T05:04:53;-4.20;97.80
11043;DHT22;5574;48.786;10.120;2024-01-11T05:07:20;-4.30;97.70
11043;DHT22;5574;48.786;10.120;2024-01-11T05:09:46;-4.30;97.70
11043;DHT22;5574;48.786;10.120;2024-01-11T05:12:13;-4.30;97.50
11043;DHT22;5574;48.786;10.120;2024-01-11T05:14:40;-4.30;97.60
11043;DHT22;5574;48.786;10.120;2024-01-11T05:17:08;-4.40;97.50
11043;DHT22;5574;48.786;10.120;2024-01-11T05:19:35;-4.40;97.80
11043;DHT22;5574;48.786;10.120;2024-01-11T05:22:01;-4.40;97.70
11043;DHT22;5574;48.786;10.120;2024-01-11T05:24:28;-4.40;97.90
11043;DHT22;5574;48.786;10.120;2024-01-11T05:26:54;-4.50;97.90
11043;DHT22;5574;48.786;10.120;2024-01-11T05:29:21;-4.50;98.00
11043;DHT22;5574;48.786;10.120;2024-01-11T05:31:48;-4.50;98.00
11043;DHT22;5574;48.786;10.120;2024-01-11T05:34:16;-4.40;98.10
11043;DHT22;5574;48.786;10.120;2024-01-11T05:36:42;-4.40;98.00
11043;DHT22;5574;48.786;10.120;2024-01-11T05:39:09;-4.40;98.00
11043;DHT22;5574;48.786;10.120;2024-01-11T05:41:36;-4.40;98.20
11043;DHT22;5574;48.786;10.120;2024-01-11T05:44:02;-4.40;97.90
11043;DHT22;5574;48.786;10.120;2024-01-11T05:46:29;-4.40;98.10
11043;DHT22;5574;48.786;10.120;2024-01-11T05:48:56;-4.30;98.00
11043;DHT22;5574;48.786;10.120;2024-01-11T05:51:24;-4.30;97.50
11043;DHT22;5574;48.786;10.120;2024-01-11T05:53:52;-4.30;97.60
11043;DHT22;5574;48.786;10.120;2024-01-11T05:56:19;-4.30;97.80
11043;DHT22;5574;48.786;10.120;2024-01-11T05:58:46;-4.20;97.80
11043;DHT22;5574;48.786;10.120;2024-01-11T06:01:13;-4.30;97.70
11043;DHT22;5574;48.786;10.120;2024-01-11T06:03:40;-4.20;98.00
11043;DHT22;5574;48.786;10.120;2024-01-11T06:06:06;-4.20;97.70
11043;DHT22;5574;48.786;10.120;2024-01-11T06:08:34;-4.20;97.70
11043;DHT22;5574;48.786;10.120;2024-01-11T06:11:01;-4.20;97.80
11043;DHT22;5574;48.786;10.120;2024-01-11T06:13:29;-4.20;97.70
11043;DHT22;5574;48.786;10.120;2024-01-11T06:15:56;-4.20;97.90
11043;DHT22;5574;48.786;10.120;2024-01-11T06:18:22;-4.10;97.70
11043;DHT22;5574;48.786;10.120;2024-01-11T06:20:49;-4.10;97.80
11043;DHT22;5574;48.786;10.120;2024-01-11T06:23:16;-4.20;97.50
11043;DHT22;5574;48.786;10.120;2024-01-11T06:25:45;-4.20;97.60
11043;DHT22;5574;48.786;10.120;2024-01-11T06:28:12;-4.20;97.70
11043;DHT22;5574;48.786;10.120;2024-01-11T06:30:39;-4.20;97.80
11043;DHT22;5574;48.786;10.120;2024-01-11T06:33:05;-4.20;97.70
11043;DHT22;5574;48.786;10.120;2024-01-11T06:35:32;-4.30;97.80
11043;DHT22;5574;48.786;10.120;2024-01-11T06:37:59;-4.20;97.70
11043;DHT22;5574;48.786;10.120;2024-01-11T06:40:26;-4.20;97.80
11043;DHT22;5574;48.786;10.120;2024-01-11T06:42:54;-4.30;97.60
11043;DHT22;5574;48.786;10.120;2024-01-11T06:45:21;-4.30;97.40
11043;DHT22;5574;48.786;10.120;2024-01-11T06:47:47;-4.30;97.50
11043;DHT22;5574;48.786;10.120;2024-01-11T06:50:14;-4.30;97.50
11043;DHT22;5574;48.786;10.120;2024-01-11T06:52:41;-4.30;97.50
11043;DHT22;5574;48.786;10.120;2024-01-11T06:55:08;-4.30;97.50
11043;DHT22;5574;48.786;10.120;2024-01-11T06:57:36;-4.30;97.70
11043;DHT22;5574;48.786;10.120;2024-01-11T07:00:05;-4.40;97.90
11043;DHT22;5574;48.786;10.120;2024-01-11T07:02:32;-4.30;98.00
11043;DHT22;5574;48.786;10.120;2024-01-11T07:04:59;-4.40;97.70
11043;DHT22;5574;48.786;10.120;2024-01-11T07:07:26;-4.30;97.90
11043;DHT22;5574;48.786;10.120;2024-01-11T07:09:52;-4.30;97.60
11043;DHT22;5574;48.786;10.120;2024-01-11T07:12:20;-4.30;97.40
11043;DHT22;5574;48.786;10.120;2024-01-11T07:14:47;-4.30;97.20
11043;DHT22;5574;48.786;10.120;2024-01-11T07:17:15;-4.30;97.30
11043;DHT22;5574;48.786;10.120;2024-01-11T07:19:42;-4.30;97.30
11043;DHT22;5574;48.786;10.120;2024-01-11T07:22:08;-4.30;97.30
11043;DHT22;5574;48.786;10.120;2024-01-11T07:24:35;-4.30;97.30
11043;DHT22;5574;48.786;10.120;2024-01-11T07:27:03;-4.30;97.10
11043;DHT22;5574;48.786;10.120;2024-01-11T07:29:30;-4.30;97.10
11043;DHT22;5574;48.786;10.120;2024-01-11T07:31:56;-4.30;97.10
11043;DHT22;5574;48.786;10.120;2024-01-11T07:34:24;-4.30;97.10
11043;DHT22;5574;48.786;10.120;2024-01-11T07:36:52;-4.30;96.70
11043;DHT22;5574;48.786;10.120;2024-01-11T07:39:18;-4.30;96.80
11043;DHT22;5574;48.786;10.120;2024-01-11T07:41:45;-4.30;97.10
11043;DHT22;5574;48.786;10.120;2024-01-11T07:44:12;-4.30;97.20
11043;DHT22;5574;48.786;10.120;2024-01-11T07:46:38;-4.40;97.10
11043;DHT22;5574;48.786;10.120;2024-01-11T07:49:05;-4.40;97.30
11043;DHT22;5574;48.786;10.120;2024-01-11T07:51:34;-4.30;97.40
11043;DHT22;5574;48.786;10.120;2024-01-11T07:54:01;-4.30;97.30
11043;DHT22;5574;48.786;10.120;2024-01-11T07:56:28;-4.30;97.00
11043;DHT22;5574;48.786;10.120;2024-01-11T07:58:55;-4.20;97.20
11043;DHT22;5574;48.786;10.120;2024-01-11T08:01:22;-4.20;96.90
11043;DHT22;5574;48.786;10.120;2024-01-11T08:03:48;-4.30;96.70
11043;DHT22;5574;48.786;10.120;2024-01-11T08:06:17;-4.30;97.00
11043;DHT22;5574;48.786;10.120;2024-01-11T08:08:45;-4.30;96.90
11043;DHT22;5574;48.786;10.120;2024-01-11T08:11:17;-4.20;97.20
11043;DHT22;5574;48.786;10.120;2024-01-11T08:13:43;-4.10;97.10
11043;DHT22;5574;48.786;10.120;2024-01-11T08:16:15;-4.10;96.90
11043;DHT22;5574;48.786;10.120;2024-01-11T08:18:42;-4.10;96.90
11043;DHT22;5574;48.786;10.120;2024-01-11T08:21:09;-4.20;96.90
11043;DHT22;5574;48.786;10.120;2024-01-11T08:23:36;-4.20;97.10
11043;DHT22;5574;48.786;10.120;2024-01-11T08:26:06;-4.10;97.10
11043;DHT22;5574;48.786;10.120;2024-01-11T08:28:33;-4.10;96.90
11043;DHT22;5574;48.786;10.120;2024-01-11T08:31:00;-4.20;97.30
11043;DHT22;5574;48.786;10.120;2024-01-11T08:33:30;-4.20;97.10
11043;DHT22;5574;48.786;10.120;2024-01-11T08:35:56;-4.20;97.40
11043;DHT22;5574;48.786;10.120;2024-01-11T08:38:23;-4.20;97.40
11043;DHT22;5574;48.786;10.120;2024-01-11T08:40:50;-4.20;97.50
11043;DHT22;5574;48.786;10.120;2024-01-11T08:43:18;-4.20;97.80
11043;DHT22;5574;48.786;10.120;2024-01-11T08:45:45;-3.30;98.30
11043;DHT22;5574;48.786;10.120;2024-01-11T08:48:12;-2.40;96.70
11043;DHT22;5574;48.786;10.120;2024-01-11T08:50:38;-1.60;96.00
11043;DHT22;5574;48.786;10.120;2024-01-11T08:53:05;-0.80;95.60
11043;DHT22;5574;48.786;10.120;2024-01-11T08:55:32;-0.60;94.60
11043;DHT22;5574;48.786;10.120;2024-01-11T08:57:59;-0.90;94.60
11043;DHT22;5574;48.786;10.120;2024-01-11T09:00:27;-1.10;95.10
11043;DHT22;5574;48.786;10.120;2024-01-11T09:02:54;-1.30;95.30
11043;DHT22;5574;48.786;10.120;2024-01-11T09:05:21;-1.40;95.30
11043;DHT22;5574;48.786;10.120;2024-01-11T09:07:47;-1.40;95.60
11043;DHT22;5574;48.786;10.120;2024-01-11T09:10:14;-1.20;95.80
11043;DHT22;5574;48.786;10.120;2024-01-11T09:12:41;-1.00;95.40
11043;DHT22;5574;48.786;10.120;2024-01-11T09:15:08;-0.80;95.20
11043;DHT22;5574;48.786;10.120;2024-01-11T09:17:36;-0.50;95.50
11043;DHT22;5574;48.786;10.120;2024-01-11T09:20:04;-0.40;94.90
11043;DHT22;5574;48.786;10.120;2024-01-11T09:22:31;-0.20;94.60
11043;DHT22;5574;48.786;10.120;2024-01-11T09:24:58;0.00;94.20
11043;DHT22;5574;48.786;10.120;2024-01-11T09:27:24;0.10;94.30
11043;DHT22;5574;48.786;10.120;2024-01-11T09:29:51;0.30;94.30
11043;DHT22;5574;48.786;10.120;2024-01-11T09:32:18;0.50;94.30
11043;DHT22;5574;48.786;10.120;2024-01-11T09:34:47;0.80;94.50
11043;DHT22;5574;48.786;10.120;2024-01-11T09:37:13;0.90;93.50
11043;DHT22;5574;48.786;10.120;2024-01-11T09:39:40;1.10;93.60
11043;DHT22;5574;48.786;10.120;2024-01-11T09:42:08;1.00;93.50
11043;DHT22;5574;48.786;10.120;2024-01-11T09:44:36;1.10;93.20
11043;DHT22;5574;48.786;10.120;2024-01-11T09:47:05;1.20;93.30
11043;DHT22;5574;48.786;10.120;2024-01-11T09:49:33;1.40;93.20
11043;DHT22;5574;48.786;10.120;2024-01-11T09:52:02;1.50;93.30
11043;DHT22;5574;48.786;10.120;2024-01-11T09:54:29;1.70;93.30
11043;DHT22;5574;48.786;10.120;2024-01-11T09:56:58;1.90;93.20
11043;DHT22;5574;48.786;10.120;2024-01-11T09:59:26;2.20;93.00
11043;DHT22;5574;48.786;10.120;2024-01-11T10:01:53;2.30;93.30
11043;DHT22;5574;48.786;10.120;2024-01-11T10:04:20;2.50;92.80
11043;DHT22;5574;48.786;10.120;2024-01-11T10:06:46;2.70;92.70
11043;DHT22;5574;48.786;10.120;2024-01-11T10:09:17;2.80;92.60
11043;DHT22;5574;48.786;10.120;2024-01-11T10:11:44;3.00;92.30
11043;DHT22;5574;48.786;10.120;2024-01-11T10:14:12;2.80;91.80
11043;DHT22;5574;48.786;10.120;2024-01-11T10:16:38;2.80;92.50
11043;DHT22;5574;48.786;10.120;2024-01-11T10:19:07;2.90;92.00
11043;DHT22;5574;48.786;10.120;2024-01-11T10:21:38;3.10;91.70
11043;DHT22;5574;48.786;10.120;2024-01-11T10:24:05;3.10;91.50
11043;DHT22;5574;48.786;10.120;2024-01-11T10:26:33;3.20;91.70
11043;DHT22;5574;48.786;10.120;2024-01-11T10:29:00;3.40;91.90
11043;DHT22;5574;48.786;10.120;2024-01-11T10:31:28;3.40;91.60
11043;DHT22;5574;48.786;10.120;2024-01-11T10:33:55;3.40;91.80
11043;DHT22;5574;48.786;10.120;2024-01-11T10:36:22;3.40;91.80
11043;DHT22;5574;48.786;10.120;2024-01-11T10:38:49;3.30;92.00
11043;DHT22;5574;48.786;10.120;2024-01-11T10:41:18;3.00;92.30
11043;DHT22;5574;48.786;10.120;2024-01-11T10:43:48;2.90;92.70
11043;DHT22;5574;48.786;10.120;2024-01-11T10:46:15;2.70;92.60
11043;DHT22;5574;48.786;10.120;2024-01-11T10:48:48;2.60;92.80
11043;DHT22;5574;48.786;10.120;2024-01-11T10:51:20;2.50;93.10
11043;DHT22;5574;48.786;10.120;2024-01-11T10:53:47;2.60;93.60
11043;DHT22;5574;48.786;10.120;2024-01-11T10:56:17;2.60;93.30
11043;DHT22;5574;48.786;10.120;2024-01-11T10:58:44;2.70;93.40
11043;DHT22;5574;48.786;10.120;2024-01-11T11:01:13;2.80;93.60
11043;DHT22;5574;48.786;10.120;2024-01-11T11:03:40;2.90;93.30
11043;DHT22;5574;48.786;10.120;2024-01-11T11:06:09;2.90;93.20
11043;DHT22;5574;48.786;10.120;2024-01-11T11:08:36;2.90;93.40
11043;DHT22;5574;48.786;10.120;2024-01-11T11:11:04;2.80;93.00
11043;DHT22;5574;48.786;10.120;2024-01-11T11:13:32;2.90;93.20
11043;DHT22;5574;48.786;10.120;2024-01-11T11:16:00;3.00;93.00
11043;DHT22;5574;48.786;10.120;2024-01-11T11:18:30;3.10;93.00
11043;DHT22;5574;48.786;10.120;2024-01-11T11:20:57;3.10;93.00
11043;DHT22;5574;48.786;10.120;2024-01-11T11:23:24;3.30;93.00
11043;DHT22;5574;48.786;10.120;2024-01-11T11:25:54;3.40;92.80
11043;DHT22;5574;48.786;10.120;2024-01-11T11:28:22;3.40;92.90
11043;DHT22;5574;48.786;10.120;2024-01-11T11:30:49;3.40;92.80
11043;DHT22;5574;48.786;10.120;2024-01-11T11:33:18;3.30;93.10
11043;DHT22;5574;48.786;10.120;2024-01-11T11:35:47;3.40;93.10
11043;DHT22;5574;48.786;10.120;2024-01-11T11:38:17;3.50;92.80
11043;DHT22;5574;48.786;10.120;2024-01-11T11:40:46;3.40;92.60
11043;DHT22;5574;48.786;10.120;2024-01-11T11:43:15;3.50;93.40
11043;DHT22;5574;48.786;10.120;2024-01-11T11:45:42;3.50;93.20
11043;DHT22;5574;48.786;10.120;2024-01-11T11:51:15;3.50;93.20
11043;DHT22;5574;48.786;10.120;2024-01-11T11:53:42;3.60;92.70
11043;DHT22;5574;48.786;10.120;2024-01-11T11:56:10;3.40;93.60
11043;DHT22;5574;48.786;10.120;2024-01-11T11:58:38;3.30;94.30
11043;DHT22;5574;48.786;10.120;2024-01-11T12:01:05;3.30;93.90
11043;DHT22;5574;48.786;10.120;2024-01-11T12:03:33;3.30;93.30
11043;DHT22;5574;48.786;10.120;2024-01-11T12:06:01;3.30;92.80
11043;DHT22;5574;48.786;10.120;2024-01-11T12:08:29;3.30;93.30
11043;DHT22;5574;48.786;10.120;2024-01-11T12:10:56;3.20;93.40
11043;DHT22;5574;48.786;10.120;2024-01-11T12:13:24;3.20;93.50
11043;DHT22;5574;48.786;10.120;2024-01-11T12:15:51;3.10;93.30
11043;DHT22;5574;48.786;10.120;2024-01-11T12:18:17;3.10;93.30
11043;DHT22;5574;48.786;10.120;2024-01-11T12:20:45;3.00;93.60
11043;DHT22;5574;48.786;10.120;2024-01-11T12:23:12;3.00;93.50
11043;DHT22;5574;48.786;10.120;2024-01-11T12:25:40;3.00;93.70
11043;DHT22;5574;48.786;10.120;2024-01-11T12:28:07;2.80;94.70
11043;DHT22;5574;48.786;10.120;2024-01-11T12:30:34;2.70;94.30
11043;DHT22;5574;48.786;10.120;2024-01-11T12:33:02;2.60;94.80
11043;DHT22;5574;48.786;10.120;2024-01-11T12:35:30;2.60;94.90
11043;DHT22;5574;48.786;10.120;2024-01-11T12:37:59;2.50;94.80
11043;DHT22;5574;48.786;10.120;2024-01-11T12:40:26;2.50;95.20
11043;DHT22;5574;48.786;10.120;2024-01-11T12:42:56;2.40;95.10
11043;DHT22;5574;48.786;10.120;2024-01-11T12:45:24;2.40;94.70
11043;DHT22;5574;48.786;10.120;2024-01-11T12:47:52;2.50;95.10
11043;DHT22;5574;48.786;10.120;2024-01-11T12:50:20;2.50;94.90
11043;DHT22;5574;48.786;10.120;2024-01-11T12:53:04;2.60;94.60
11043;DHT22;5574;48.786;10.120;2024-01-11T12:55:31;2.60;94.80
11043;DHT22;5574;48.786;10.120;2024-01-11T12:58:08;2.60;94.30
11043;DHT22;5574;48.786;10.120;2024-01-11T13:00:35;2.60;94.70
11043;DHT22;5574;48.786;10.120;2024-01-11T13:03:03;2.50;94.20
11043;DHT22;5574;48.786;10.120;2024-01-11T13:05:30;2.50;94.70
11043;DHT22;5574;48.786;10.120;2024-01-11T13:08:00;2.40;94.20
11043;DHT22;5574;48.786;10.120;2024-01-11T13:10:28;2.40;94.50
11043;DHT22;5574;48.786;10.120;2024-01-11T13:12:55;2.40;94.90
11043;DHT22;5574;48.786;10.120;2024-01-11T13:15:23;2.30;94.50
11043;DHT22;5574;48.786;10.120;2024-01-11T13:17:50;2.30;95.00
11043;DHT22;5574;48.786;10.120;2024-01-11T13:20:16;2.30;95.30
11043;DHT22;5574;48.786;10.120;2024-01-11T13:22:43;2.20;95.20
11043;DHT22;5574;48.786;10.120;2024-01-11T13:25:10;2.20;95.10
11043;DHT22;5574;48.786;10.120;2024-01-11T13:27:36;2.10;95.00
11043;DHT22;5574;48.786;10.120;2024-01-11T13:30:04;2.10;95.30
11043;DHT22;5574;48.786;10.120;2024-01-11T13:32:32;2.00;94.90
11043;DHT22;5574;48.786;10.120;2024-01-11T13:34:59;2.00;95.10
11043;DHT22;5574;48.786;10.120;2024-01-11T13:37:25;2.00;95.40
11043;DHT22;5574;48.786;10.120;2024-01-11T13:39:52;2.00;95.40
11043;DHT22;5574;48.786;10.120;2024-01-11T13:42:19;1.90;95.30
11043;DHT22;5574;48.786;10.120;2024-01-11T13:44:45;1.90;95.30
11043;DHT22;5574;48.786;10.120;2024-01-11T13:47:12;1.80;95.20
11043;DHT22;5574;48.786;10.120;2024-01-11T13:49:41;1.80;95.70
11043;DHT22;5574;48.786;10.120;2024-01-11T13:52:07;1.80;95.60
11043;DHT22;5574;48.786;10.120;2024-01-11T13:54:34;1.70;95.50
11043;DHT22;5574;48.786;10.120;2024-01-11T13:57:01;1.60;95.30
11043;DHT22;5574;48.786;10.120;2024-01-11T13:59:28;1.60;95.90
11043;DHT22;5574;48.786;10.120;2024-01-11T14:01:54;1.50;95.90
11043;DHT22;5574;48.786;10.120;2024-01-11T14:04:21;1.40;95.80
11043;DHT22;5574;48.786;10.120;2024-01-11T14:06:50;1.30;96.10
11043;DHT22;5574;48.786;10.120;2024-01-11T14:09:17;1.30;96.20
11043;DHT22;5574;48.786;10.120;2024-01-11T14:11:44;1.30;95.70
11043;DHT22;5574;48.786;10.120;2024-01-11T14:14:14;1.30;95.40
11043;DHT22;5574;48.786;10.120;2024-01-11T14:16:40;1.30;95.60
11043;DHT22;5574;48.786;10.120;2024-01-11T14:19:07;1.20;95.60
11043;DHT22;5574;48.786;10.120;2024-01-11T14:21:34;1.20;95.60
11043;DHT22;5574;48.786;10.120;2024-01-11T14:24:04;1.20;95.60
11043;DHT22;5574;48.786;10.120;2024-01-11T14:26:31;1.20;95.70
11043;DHT22;5574;48.786;10.120;2024-01-11T14:28:58;1.20;96.10
11043;DHT22;5574;48.786;10.120;2024-01-11T14:31:26;1.10;96.10
11043;DHT22;5574;48.786;10.120;2024-01-11T14:33:53;1.00;96.10
11043;DHT22;5574;48.786;10.120;2024-01-11T14:36:19;1.00;95.60
11043;DHT22;5574;48.786;10.120;2024-01-11T14:38:46;0.90;96.00
11043;DHT22;5574;48.786;10.120;2024-01-11T14:41:14;0.90;96.10
11043;DHT22;5574;48.786;10.120;2024-01-11T14:43:41;0.80;96.30
11043;DHT22;5574;48.786;10.120;2024-01-11T14:46:07;0.80;96.30
11043;DHT22;5574;48.786;10.120;2024-01-11T14:48:36;0.90;96.00
11043;DHT22;5574;48.786;10.120;2024-01-11T14:51:03;0.90;96.00
11043;DHT22;5574;48.786;10.120;2024-01-11T14:53:30;0.90;96.10
11043;DHT22;5574;48.786;10.120;2024-01-11T14:55:56;0.90;96.00
11043;DHT22;5574;48.786;10.120;2024-01-11T14:58:24;1.00;96.00
11043;DHT22;5574;48.786;10.120;2024-01-11T15:00:51;0.90;95.90
11043;DHT22;5574;48.786;10.120;2024-01-11T15:03:18;0.80;96.10
11043;DHT22;5574;48.786;10.120;2024-01-11T15:05:45;0.70;96.60
11043;DHT22;5574;48.786;10.120;2024-01-11T15:08:12;0.60;96.60
11043;DHT22;5574;48.786;10.120;2024-01-11T15:10:38;0.50;96.60
11043;DHT22;5574;48.786;10.120;2024-01-11T15:13:05;0.40;96.60
11043;DHT22;5574;48.786;10.120;2024-01-11T15:15:33;0.30;96.50
11043;DHT22;5574;48.786;10.120;2024-01-11T15:17:59;0.20;96.50
11043;DHT22;5574;48.786;10.120;2024-01-11T15:20:26;0.20;96.60
11043;DHT22;5574;48.786;10.120;2024-01-11T15:22:53;0.20;96.80
11043;DHT22;5574;48.786;10.120;2024-01-11T15:25:19;0.20;96.90
11043;DHT22;5574;48.786;10.120;2024-01-11T15:27:46;0.10;96.90
11043;DHT22;5574;48.786;10.120;2024-01-11T15:30:13;0.10;97.00
11043;DHT22;5574;48.786;10.120;2024-01-11T15:32:41;0.10;97.10
11043;DHT22;5574;48.786;10.120;2024-01-11T15:35:08;0.10;97.30
11043;DHT22;5574;48.786;10.120;2024-01-11T15:37:37;0.10;97.20
11043;DHT22;5574;48.786;10.120;2024-01-11T15:40:05;0.10;97.30